createdAt,value
2018-12-17T00:01:20.219Z,91.82
2018-12-17T00:03:48.445Z,91.51
2018-12-17T00:06:16.669Z,91.46
2018-12-17T00:08:45.207Z,91.15
2018-12-17T00:11:13.537Z,91.49
2018-12-17T00:13:41.750Z,91.36
2018-12-17T00:16:09.916Z,91.68
2018-12-17T00:18:38.072Z,91.84
2018-12-17T00:21:07.546Z,91.75
2018-12-17T00:23:36.232Z,91.90
2018-12-17T00:26:04.519Z,92.27
2018-12-17T00:28:32.768Z,93.23
2018-12-17T00:31:00.984Z,93.77
2018-12-17T00:33:29.543Z,93.61
2018-12-17T00:35:57.793Z,93.84
2018-12-17T00:38:26.436Z,94.59
2018-12-17T00:40:54.993Z,94.13
2018-12-17T00:43:23.430Z,93.61
2018-12-17T00:45:52.382Z,93.43
2018-12-17T00:48:21.029Z,93.86
2018-12-17T00:50:49.255Z,94.90
2018-12-17T00:53:17.453Z,95.14
2018-12-17T00:55:45.729Z,95.11
2018-12-17T00:58:15.285Z,94.84
2018-12-17T01:00:43.796Z,94.68
2018-12-17T01:03:12.127Z,95.02
2018-12-17T01:05:40.359Z,94.54
2018-12-17T01:08:08.749Z,94.76
2018-12-17T01:10:37.026Z,94.22
2018-12-17T01:13:05.208Z,93.79
2018-12-17T01:15:33.368Z,93.29
2018-12-17T01:18:01.607Z,93.09
2018-12-17T01:20:30.663Z,93.20
2018-12-17T01:22:58.881Z,93.20
2018-12-17T01:25:27.182Z,93.21
2018-12-17T01:27:55.407Z,93.57
2018-12-17T01:30:23.600Z,93.05
2018-12-17T01:32:51.793Z,93.00
2018-12-17T01:35:20.005Z,92.69
2018-12-17T01:37:48.200Z,93.10
2018-12-17T01:40:16.552Z,93.49
2018-12-17T01:42:44.896Z,92.64
2018-12-17T01:45:13.159Z,92.36
2018-12-17T01:47:41.384Z,92.52
2018-12-17T01:50:09.628Z,93.29
2018-12-17T01:52:37.778Z,93.25
2018-12-17T01:55:06.101Z,92.70
2018-12-17T01:57:34.469Z,92.90
2018-12-17T02:00:02.807Z,93.57
2018-12-17T02:02:30.998Z,93.53
2018-12-17T02:04:59.331Z,93.24
2018-12-17T02:07:27.673Z,93.31
2018-12-17T02:09:56.176Z,93.22
2018-12-17T02:12:24.364Z,93.05
2018-12-17T02:14:52.574Z,93.28
2018-12-17T02:17:20.738Z,93.22
2018-12-17T02:19:49.644Z,93.46
2018-12-17T02:22:17.916Z,94.17
2018-12-17T02:24:46.124Z,95.48
2018-12-17T02:27:14.294Z,95.68
2018-12-17T02:29:42.570Z,95.39
2018-12-17T02:32:10.746Z,95.41
2018-12-17T02:34:39.945Z,94.83
2018-12-17T02:37:08.144Z,94.32
2018-12-17T02:39:36.406Z,94.07
2018-12-17T02:42:04.706Z,93.97
2018-12-17T02:44:32.877Z,93.79
2018-12-17T02:47:01.320Z,94.31
2018-12-17T02:49:29.865Z,94.27
2018-12-17T02:51:58.120Z,93.70
2018-12-17T02:54:26.305Z,93.29
2018-12-17T02:56:54.501Z,93.38
2018-12-17T02:59:22.714Z,92.94
2018-12-17T03:01:50.898Z,93.29
2018-12-17T03:04:19.078Z,93.49
2018-12-17T03:06:47.325Z,93.36
2018-12-17T03:09:15.533Z,93.44
2018-12-17T03:11:44.082Z,92.81
2018-12-17T03:14:12.335Z,92.31
2018-12-17T03:16:40.540Z,92.49
2018-12-17T03:19:08.771Z,92.57
2018-12-17T03:21:37.066Z,93.34
2018-12-17T03:24:05.478Z,92.66
2018-12-17T03:26:33.676Z,92.43
2018-12-17T03:29:01.907Z,93.29
2018-12-17T03:31:31.183Z,94.02
2018-12-17T03:33:59.581Z,94.62
2018-12-17T03:36:28.077Z,95.19
2018-12-17T03:38:56.267Z,95.19
2018-12-17T03:41:24.446Z,95.22
2018-12-17T03:43:52.754Z,94.75
2018-12-17T03:46:21.022Z,94.67
2018-12-17T03:48:49.680Z,94.54
2018-12-17T03:51:17.895Z,94.36
2018-12-17T03:53:46.223Z,94.41
2018-12-17T03:56:14.458Z,94.25
2018-12-17T03:58:43.465Z,94.34
2018-12-17T04:01:12.066Z,94.34
2018-12-17T04:03:40.281Z,94.03
2018-12-17T04:06:21.492Z,93.96
2018-12-17T04:08:49.640Z,94.61
2018-12-17T04:11:17.905Z,93.46
2018-12-17T04:13:46.097Z,94.41
2018-12-17T04:16:14.265Z,95.28
2018-12-17T04:18:42.543Z,95.41
2018-12-17T04:21:10.698Z,95.37
2018-12-17T04:23:38.875Z,95.57
2018-12-17T04:26:07.071Z,95.64
2018-12-17T04:28:35.202Z,96.33
2018-12-17T04:31:03.685Z,96.26
2018-12-17T04:33:31.902Z,96.26
2018-12-17T04:36:00.054Z,96.44
2018-12-17T04:38:28.205Z,96.29
2018-12-17T04:40:56.412Z,96.32
2018-12-17T04:43:24.960Z,96.31
2018-12-17T04:45:53.184Z,95.85
2018-12-17T04:48:21.327Z,95.47
2018-12-17T04:50:49.506Z,95.61
2018-12-17T04:53:17.651Z,95.08
2018-12-17T04:55:45.870Z,95.44
2018-12-17T04:58:14.031Z,95.32
2018-12-17T05:00:42.266Z,95.37
2018-12-17T05:03:10.479Z,95.57
2018-12-17T05:05:38.638Z,95.26
2018-12-17T05:08:07.846Z,95.23
2018-12-17T05:10:36.128Z,94.71
2018-12-17T05:13:04.404Z,94.89
2018-12-17T05:15:32.570Z,94.22
2018-12-17T05:18:00.737Z,93.64
2018-12-17T05:20:29.174Z,93.16
2018-12-17T05:22:57.304Z,93.10
2018-12-17T05:25:25.455Z,92.99
2018-12-17T05:27:53.579Z,92.77
2018-12-17T05:30:21.810Z,92.85
2018-12-17T05:32:50.266Z,92.87
2018-12-17T05:35:18.463Z,92.37
2018-12-17T05:37:46.643Z,93.56
2018-12-17T05:40:14.826Z,93.41
2018-12-17T05:42:42.955Z,93.80
2018-12-17T05:45:11.443Z,93.61
2018-12-17T05:47:39.583Z,93.95
2018-12-17T05:50:07.887Z,93.51
2018-12-17T05:52:36.028Z,94.39
2018-12-17T05:55:04.791Z,94.30
2018-12-17T05:57:33.953Z,93.67
2018-12-17T06:00:02.339Z,93.44
2018-12-17T06:02:30.534Z,94.69
2018-12-17T06:04:58.704Z,94.68
2018-12-17T06:07:26.889Z,94.10
2018-12-17T06:09:55.319Z,94.88
2018-12-17T06:12:23.449Z,94.72
2018-12-17T06:14:51.594Z,94.57
2018-12-17T06:17:19.773Z,95.06
2018-12-17T06:19:47.899Z,94.59
2018-12-17T06:22:16.056Z,94.82
2018-12-17T06:24:44.186Z,94.51
2018-12-17T06:27:12.353Z,95.13
2018-12-17T06:29:40.575Z,94.52
2018-12-17T06:32:08.717Z,94.46
2018-12-17T06:34:36.944Z,94.21
2018-12-17T06:37:05.076Z,94.29
2018-12-17T06:39:33.207Z,94.33
2018-12-17T06:42:01.354Z,94.50
2018-12-17T06:44:29.646Z,94.73
2018-12-17T06:46:58.597Z,94.66
2018-12-17T06:49:26.742Z,94.12
2018-12-17T06:51:55.257Z,94.39
2018-12-17T06:54:23.699Z,94.08
2018-12-17T06:56:51.835Z,93.90
2018-12-17T06:59:22.993Z,94.48
2018-12-17T07:01:51.184Z,93.90
2018-12-17T07:04:19.357Z,94.43
2018-12-17T07:06:47.550Z,94.34
2018-12-17T07:09:15.685Z,94.08
2018-12-17T07:11:45.082Z,93.44
2018-12-17T07:14:13.706Z,93.25
2018-12-17T07:16:41.853Z,93.72
2018-12-17T07:19:09.998Z,93.35
2018-12-17T07:21:38.120Z,93.81
2018-12-17T07:24:06.708Z,93.89
2018-12-17T07:26:34.880Z,93.43
2018-12-17T07:29:03.095Z,93.49
2018-12-17T07:31:31.239Z,93.67
2018-12-17T07:33:59.487Z,94.50
2018-12-17T07:36:28.503Z,94.67
2018-12-17T07:38:56.644Z,95.53
2018-12-17T07:41:25.028Z,95.06
2018-12-17T07:43:53.294Z,94.65
2018-12-17T07:46:21.484Z,94.75
2018-12-17T07:48:49.864Z,95.08
2018-12-17T07:51:18.081Z,94.61
2018-12-17T07:53:46.204Z,93.86
2018-12-17T07:56:14.379Z,94.20
2018-12-17T07:58:42.596Z,93.70
2018-12-17T08:01:10.980Z,93.85
2018-12-17T08:03:39.099Z,93.68
2018-12-17T08:06:07.279Z,93.22
2018-12-17T08:08:35.778Z,93.77
2018-12-17T08:11:04.037Z,93.75
2018-12-17T08:13:32.533Z,93.17
2018-12-17T08:16:01.553Z,93.72
2018-12-17T08:18:29.689Z,93.51
2018-12-17T08:20:57.973Z,94.11
2018-12-17T08:23:26.104Z,93.36
2018-12-17T08:25:54.577Z,92.49
2018-12-17T08:28:22.790Z,90.92
2018-12-17T08:30:50.998Z,92.49
2018-12-17T08:33:19.168Z,92.31
2018-12-17T08:35:47.505Z,92.51
2018-12-17T08:38:16.025Z,92.48
2018-12-17T08:40:44.982Z,92.28
2018-12-17T08:43:13.156Z,92.83
2018-12-17T08:45:41.340Z,92.88
2018-12-17T08:48:11.111Z,92.77
2018-12-17T08:50:39.272Z,92.75
2018-12-17T08:53:07.497Z,92.06
2018-12-17T08:55:36.133Z,92.21
2018-12-17T08:58:04.565Z,92.68
2018-12-17T09:00:32.729Z,92.55
2018-12-17T09:03:00.958Z,94.08
2018-12-17T09:05:29.100Z,94.21
2018-12-17T09:07:57.231Z,95.27
2018-12-17T09:10:25.803Z,94.53
2018-12-17T09:12:53.951Z,94.65
2018-12-17T09:15:22.278Z,94.74
2018-12-17T09:17:50.463Z,94.35
2018-12-17T09:20:18.734Z,94.63
2018-12-17T09:22:48.454Z,95.01
2018-12-17T09:25:16.603Z,95.33
2018-12-17T09:27:44.777Z,95.20
2018-12-17T09:30:18.231Z,94.46
2018-12-17T09:32:43.147Z,94.77
2018-12-17T09:35:12.346Z,94.17
2018-12-17T09:37:40.831Z,93.36
2018-12-17T09:40:09.221Z,93.09
2018-12-17T09:42:37.357Z,92.64
2018-12-17T09:45:07.383Z,92.70
2018-12-17T09:47:35.607Z,92.47
2018-12-17T09:50:04.160Z,91.77
2018-12-17T09:52:32.398Z,91.80
2018-12-17T09:55:00.635Z,91.49
2018-12-17T09:57:28.764Z,91.58
2018-12-17T09:59:57.358Z,91.53
2018-12-17T10:02:25.499Z,91.02
2018-12-17T10:04:53.723Z,92.73
2018-12-17T10:07:22.180Z,93.09
2018-12-17T10:09:50.319Z,93.89
2018-12-17T10:12:18.454Z,93.48
2018-12-17T10:14:47.111Z,93.94
2018-12-17T10:17:15.243Z,93.46
2018-12-17T10:19:43.482Z,93.47
2018-12-17T10:22:12.049Z,93.73
2018-12-17T10:24:40.260Z,93.93
2018-12-17T10:27:08.426Z,94.10
2018-12-17T10:29:37.389Z,93.94
2018-12-17T10:32:05.604Z,93.78
2018-12-17T10:34:33.777Z,92.86
2018-12-17T10:37:02.001Z,91.16
2018-12-17T10:39:30.215Z,91.20
2018-12-17T10:41:58.407Z,91.49
2018-12-17T10:44:28.073Z,91.01
2018-12-17T10:46:56.639Z,91.46
2018-12-17T10:49:24.822Z,89.59
2018-12-17T10:51:53.339Z,89.46
2018-12-17T10:54:22.024Z,89.86
2018-12-17T10:56:50.217Z,88.10
2018-12-17T10:59:19.090Z,88.02
2018-12-17T11:01:59.314Z,88.15
2018-12-17T11:04:33.506Z,88.82
2018-12-17T11:07:01.910Z,89.43
2018-12-17T11:09:30.091Z,89.27
2018-12-17T11:11:58.331Z,89.07
2018-12-17T11:14:26.561Z,88.41
2018-12-17T11:16:54.925Z,88.51
2018-12-17T11:19:23.951Z,88.15
2018-12-17T11:21:52.207Z,86.45
2018-12-17T11:24:20.377Z,87.06
2018-12-17T11:26:48.523Z,86.72
2018-12-17T11:29:16.718Z,86.61
2018-12-17T11:31:44.891Z,87.31
2018-12-17T11:34:14.509Z,87.26
2018-12-17T11:36:42.676Z,87.77
2018-12-17T11:39:11.026Z,87.59
2018-12-17T11:41:40.113Z,88.09
2018-12-17T11:44:08.250Z,88.79
2018-12-17T11:46:36.403Z,89.24
2018-12-17T11:49:05.348Z,88.90
2018-12-17T11:51:33.557Z,89.07
2018-12-17T11:54:01.686Z,88.75
2018-12-17T11:57:00.594Z,88.59
2018-12-17T11:59:28.809Z,87.87
2018-12-17T12:01:57.042Z,88.62
2018-12-17T12:04:25.245Z,88.51
2018-12-17T12:06:53.415Z,89.34
2018-12-17T12:09:27.942Z,88.91
2018-12-17T12:11:56.069Z,88.59
2018-12-17T12:14:24.288Z,88.62
2018-12-17T12:16:52.734Z,88.62
2018-12-17T12:19:20.933Z,88.26
2018-12-17T12:21:49.103Z,88.12
2018-12-17T12:24:17.280Z,87.40
2018-12-17T12:26:45.450Z,87.64
2018-12-17T12:29:14.323Z,88.06
2018-12-17T12:31:42.511Z,88.05
2018-12-17T12:34:10.790Z,88.42
2018-12-17T12:36:39.490Z,88.83
2018-12-17T12:39:07.779Z,88.80
2018-12-17T12:41:35.932Z,89.07
2018-12-17T12:44:08.776Z,88.15
2018-12-17T12:46:34.848Z,89.28
2018-12-17T12:49:03.008Z,88.43
2018-12-17T12:51:33.123Z,87.62
2018-12-17T12:54:01.250Z,88.06
2018-12-17T12:56:29.381Z,88.13
2018-12-17T12:58:58.764Z,87.83
2018-12-17T13:01:26.955Z,87.96
2018-12-17T13:03:55.084Z,88.18
2018-12-17T13:06:24.089Z,87.53
2018-12-17T13:08:52.298Z,87.23
2018-12-17T13:11:20.561Z,86.55
2018-12-17T13:13:49.329Z,87.78
2018-12-17T13:16:17.461Z,86.92
2018-12-17T13:18:45.571Z,86.47
2018-12-17T13:21:14.444Z,86.53
2018-12-17T13:23:42.577Z,85.15
2018-12-17T13:26:10.729Z,85.67
2018-12-17T13:28:39.594Z,86.27
2018-12-17T13:31:14.473Z,85.72
2018-12-17T13:33:37.903Z,85.56
2018-12-17T13:36:06.981Z,85.60
2018-12-17T13:38:35.096Z,85.82
2018-12-17T13:41:02.687Z,85.18
2018-12-17T13:43:31.092Z,85.45
2018-12-17T13:45:59.304Z,85.41
2018-12-17T13:48:27.427Z,85.85
2018-12-17T13:50:57.804Z,86.76
2018-12-17T13:53:31.440Z,86.31
2018-12-17T13:55:59.947Z,86.54
2018-12-17T13:58:28.153Z,87.61
2018-12-17T14:00:56.321Z,87.22
2018-12-17T14:03:24.526Z,87.95
2018-12-17T14:05:52.677Z,88.39
2018-12-17T14:08:20.930Z,88.34
2018-12-17T14:10:54.443Z,87.51
2018-12-17T14:13:23.138Z,87.12
2018-12-17T14:15:51.575Z,87.54
2018-12-17T14:18:25.694Z,87.86
2018-12-17T14:20:59.498Z,87.22
2018-12-17T14:23:29.018Z,87.76
2018-12-17T14:25:57.163Z,86.81
2018-12-17T14:28:25.362Z,86.83
2018-12-17T14:30:53.572Z,86.50
2018-12-17T14:33:21.758Z,86.40
2018-12-17T14:35:55.376Z,87.03
2018-12-17T14:38:23.650Z,87.26
2018-12-17T14:40:51.915Z,88.05
2018-12-17T14:43:20.795Z,87.28
2018-12-17T14:45:48.983Z,86.32
2018-12-17T14:48:17.143Z,86.81
2018-12-17T14:50:45.377Z,86.76
2018-12-17T14:53:13.700Z,86.67
2018-12-17T14:55:41.870Z,86.77
2018-12-17T14:58:10.224Z,87.43
2018-12-17T15:00:38.633Z,86.86
2018-12-17T15:03:06.931Z,87.22
2018-12-17T15:05:35.201Z,88.38
2018-12-17T15:08:03.351Z,87.94
2018-12-17T15:10:31.998Z,87.72
2018-12-17T15:13:00.670Z,87.36
2018-12-17T15:15:28.855Z,88.16
2018-12-17T15:17:57.515Z,88.42
2018-12-17T15:20:25.718Z,88.86
2018-12-17T15:22:54.326Z,88.33
2018-12-17T15:25:26.065Z,88.57
2018-12-17T15:27:54.327Z,87.58
2018-12-17T15:30:22.601Z,87.86
2018-12-17T15:32:51.303Z,87.91
2018-12-17T15:35:19.496Z,87.91
2018-12-17T15:37:47.625Z,87.74
2018-12-17T15:40:16.252Z,88.31
2018-12-17T15:42:44.416Z,88.51
2018-12-17T15:45:12.540Z,87.37
2018-12-17T15:47:40.817Z,87.05
2018-12-17T15:50:09.331Z,87.39
2018-12-17T15:52:37.633Z,86.65
2018-12-17T15:55:05.931Z,86.87
2018-12-17T15:57:34.140Z,86.85
2018-12-17T16:00:04.055Z,87.39
2018-12-17T16:02:32.240Z,87.35
2018-12-17T16:05:00.479Z,87.45
2018-12-17T16:07:29.462Z,87.20
2018-12-17T16:09:57.696Z,86.86
2018-12-17T16:12:26.049Z,87.10
2018-12-17T16:14:54.878Z,87.26
2018-12-17T16:17:23.325Z,88.01
2018-12-17T16:19:52.199Z,88.50
2018-12-17T16:22:20.368Z,88.73
2018-12-17T16:24:48.689Z,89.21
2018-12-17T16:27:19.417Z,90.29
2018-12-17T16:29:48.024Z,90.27
2018-12-17T16:32:16.201Z,91.27
2018-12-17T16:34:46.188Z,91.94
2018-12-17T16:37:14.349Z,92.05
2018-12-17T16:39:42.688Z,91.81
2018-12-17T16:42:11.304Z,92.51
2018-12-17T16:44:39.579Z,92.57
2018-12-17T16:47:07.775Z,92.33
2018-12-17T16:49:37.068Z,92.02
2018-12-17T16:52:05.263Z,91.86
2018-12-17T16:54:34.200Z,91.67
2018-12-17T16:57:02.403Z,92.01
2018-12-17T16:59:30.567Z,91.29
2018-12-17T17:02:04.475Z,90.86
2018-12-17T17:04:30.975Z,90.35
2018-12-17T17:06:59.444Z,90.48
2018-12-17T17:09:27.761Z,90.04
2018-12-17T17:11:56.004Z,90.13
2018-12-17T17:14:24.296Z,89.86
2018-12-17T17:16:52.635Z,89.41
2018-12-17T17:19:20.816Z,89.49
2018-12-17T17:21:49.447Z,88.69
2018-12-17T17:24:18.462Z,89.27
2018-12-17T17:26:47.034Z,89.48
2018-12-17T17:29:15.283Z,88.98
2018-12-17T17:31:43.871Z,89.40
2018-12-17T17:34:12.112Z,89.14
2018-12-17T17:36:40.350Z,89.23
2018-12-17T17:39:09.151Z,89.20
2018-12-17T17:41:38.014Z,89.23
2018-12-17T17:44:07.092Z,88.69
2018-12-17T17:46:35.732Z,88.98
2018-12-17T17:49:03.914Z,88.25
2018-12-17T17:51:32.206Z,88.11
2018-12-17T17:54:01.068Z,88.32
2018-12-17T17:56:29.434Z,88.42
2018-12-17T17:58:57.834Z,88.95
2018-12-17T18:01:28.267Z,88.89
2018-12-17T18:03:56.502Z,88.94
2018-12-17T18:06:24.775Z,88.44
2018-12-17T18:08:53.015Z,87.97
2018-12-17T18:11:22.017Z,88.77
2018-12-17T18:13:50.268Z,88.60
2018-12-17T18:16:18.592Z,88.57
2018-12-17T18:18:46.787Z,88.94
2018-12-17T18:21:15.564Z,89.07
2018-12-17T18:23:44.242Z,89.70
2018-12-17T18:26:12.623Z,89.57
2018-12-17T18:28:40.825Z,89.43
2018-12-17T18:31:09.010Z,88.80
2018-12-17T18:33:37.617Z,89.15
2018-12-17T18:36:05.733Z,89.02
2018-12-17T18:38:35.214Z,89.03
2018-12-17T18:41:03.924Z,88.66
2018-12-17T18:43:32.184Z,88.73
2018-12-17T18:46:00.643Z,89.32
2018-12-17T18:48:28.825Z,89.55
2018-12-17T18:50:57.008Z,89.73
2018-12-17T18:53:25.872Z,89.00
2018-12-17T18:55:53.995Z,88.74
2018-12-17T18:58:22.144Z,88.09
2018-12-17T19:00:50.633Z,88.40
2018-12-17T19:03:18.900Z,88.44
2018-12-17T19:05:47.078Z,89.22
2018-12-17T19:08:15.580Z,89.09
2018-12-17T19:10:49.009Z,88.48
2018-12-17T19:13:17.259Z,88.44
2018-12-17T19:15:45.400Z,88.91
2018-12-17T19:18:13.658Z,89.22
2018-12-17T19:20:41.875Z,89.80
2018-12-17T19:23:10.042Z,89.09
2018-12-17T19:25:38.192Z,88.81
2018-12-17T19:28:07.263Z,88.52
2018-12-17T19:30:35.464Z,88.94
2018-12-17T19:33:03.651Z,89.06
2018-12-17T19:35:31.811Z,89.13
2018-12-17T19:37:59.956Z,88.52
2018-12-17T19:40:28.156Z,87.38
2018-12-17T19:42:56.346Z,87.99
2018-12-17T19:45:24.499Z,87.84
2018-12-17T19:47:52.623Z,87.96
2018-12-17T19:50:20.779Z,88.14
2018-12-17T19:52:49.720Z,88.03
2018-12-17T19:55:18.028Z,87.78
2018-12-17T19:57:46.156Z,87.86
2018-12-17T20:00:14.405Z,87.35
2018-12-17T20:02:46.935Z,88.38
2018-12-17T20:05:13.043Z,87.28
2018-12-17T20:07:41.242Z,87.73
2018-12-17T20:10:13.710Z,87.88
2018-12-17T20:12:41.908Z,87.50
2018-12-17T20:15:10.166Z,87.38
2018-12-17T20:17:38.404Z,87.08
2018-12-17T20:20:07.234Z,87.52
2018-12-17T20:22:35.445Z,88.21
2018-12-17T20:25:03.680Z,87.90
2018-12-17T20:27:32.135Z,88.30
2018-12-17T20:30:01.214Z,89.12
2018-12-17T20:32:29.423Z,89.64
2018-12-17T20:34:57.568Z,89.59
2018-12-17T20:37:26.054Z,90.41
2018-12-17T20:39:54.259Z,91.02
2018-12-17T20:42:22.407Z,91.32
2018-12-17T20:44:51.394Z,91.82
2018-12-17T20:47:19.552Z,91.86
2018-12-17T20:49:47.676Z,91.77
2018-12-17T20:52:15.818Z,91.94
2018-12-17T20:54:43.947Z,92.63
2018-12-17T20:57:12.098Z,92.25
2018-12-17T20:59:40.262Z,92.55
2018-12-17T21:02:08.434Z,92.85
2018-12-17T21:04:36.692Z,92.97
2018-12-17T21:07:04.811Z,93.09
2018-12-17T21:09:34.037Z,93.06
2018-12-17T21:12:02.264Z,93.40
2018-12-17T21:14:30.411Z,93.29
2018-12-17T21:16:58.607Z,93.34
2018-12-17T21:19:26.859Z,92.87
2018-12-17T21:21:55.130Z,93.07
2018-12-17T21:24:23.442Z,92.64
2018-12-17T21:26:51.591Z,93.07
2018-12-17T21:29:20.765Z,93.10
2018-12-17T21:31:48.884Z,92.94
2018-12-17T21:34:17.024Z,92.42
2018-12-17T21:36:45.228Z,92.64
2018-12-17T21:39:13.388Z,92.91
2018-12-17T21:41:42.216Z,92.93
2018-12-17T21:44:10.548Z,92.92
2018-12-17T21:46:38.734Z,92.97
2018-12-17T21:49:11.883Z,92.67
2018-12-17T21:51:39.995Z,92.81
2018-12-17T21:54:08.159Z,93.29
2018-12-17T21:56:36.335Z,93.55
2018-12-17T21:59:04.608Z,93.61
2018-12-17T22:01:32.778Z,93.01
2018-12-17T22:04:00.980Z,92.99
2018-12-17T22:06:29.158Z,92.54
2018-12-17T22:08:58.224Z,92.87
2018-12-17T22:11:26.392Z,92.95
2018-12-17T22:13:54.597Z,93.12
2018-12-17T22:16:22.738Z,93.16
2018-12-17T22:18:50.875Z,92.89
2018-12-17T22:21:18.999Z,92.82
2018-12-17T22:23:47.167Z,93.16
2018-12-17T22:26:15.428Z,93.25
2018-12-17T22:28:43.621Z,92.78
2018-12-17T22:31:11.768Z,92.42
2018-12-17T22:33:39.947Z,92.37
2018-12-17T22:36:08.503Z,92.24
2018-12-17T22:38:36.722Z,92.59
2018-12-17T22:41:04.859Z,92.14
2018-12-17T22:43:33.059Z,92.15
2018-12-17T22:46:01.541Z,91.93
2018-12-17T22:48:30.168Z,92.06
2018-12-17T22:50:58.300Z,91.17
2018-12-17T22:53:26.466Z,91.64
2018-12-17T22:55:54.640Z,91.15
2018-12-17T22:58:22.783Z,91.29
2018-12-17T23:00:51.140Z,91.34
2018-12-17T23:03:19.333Z,91.08
2018-12-17T23:05:47.533Z,91.12
2018-12-17T23:08:15.685Z,90.51
2018-12-17T23:10:55.292Z,89.57
2018-12-17T23:13:35.158Z,89.69
2018-12-17T23:16:14.587Z,90.12
2018-12-17T23:18:42.571Z,89.42
2018-12-17T23:21:10.707Z,90.12
2018-12-17T23:23:39.015Z,90.23
2018-12-17T23:26:07.223Z,89.99
2018-12-17T23:28:35.506Z,90.41
2018-12-17T23:31:05.839Z,90.96
2018-12-17T23:33:34.398Z,90.01
2018-12-17T23:36:02.777Z,90.58
2018-12-17T23:38:30.948Z,89.93
2018-12-17T23:40:59.139Z,90.63
2018-12-17T23:43:27.311Z,90.94
2018-12-17T23:45:55.471Z,91.28
2018-12-17T23:48:23.713Z,91.21
2018-12-17T23:50:51.858Z,90.51
2018-12-17T23:53:19.995Z,89.94
2018-12-17T23:55:48.465Z,90.26
2018-12-17T23:58:16.637Z,90.62
